createdAt,value
2023-06-21T00:00:05.132Z,28.00
2023-06-21T00:01:05.188Z,28.03
2023-06-21T00:02:05.123Z,27.73
2023-06-21T00:03:05.257Z,27.76
2023-06-21T00:04:05.451Z,27.80
2023-06-21T00:05:05.288Z,27.89
2023-06-21T00:06:05.288Z,27.73
2023-06-21T00:07:05.463Z,27.79
2023-06-21T00:08:05.442Z,27.75
2023-06-21T00:09:05.507Z,27.42
2023-06-21T00:10:05.578Z,27.30
2023-06-21T00:11:05.556Z,27.17
2023-06-21T00:12:05.635Z,26.90
2023-06-21T00:13:05.639Z,26.94
2023-06-21T00:14:05.684Z,26.96
2023-06-21T00:15:05.724Z,26.87
2023-06-21T00:16:05.694Z,26.85
2023-06-21T00:17:05.768Z,26.94
2023-06-21T00:18:05.844Z,27.08
2023-06-21T00:19:05.759Z,27.20
2023-06-21T00:20:05.883Z,27.21
2023-06-21T00:21:05.943Z,27.17
2023-06-21T00:22:06.055Z,27.15
2023-06-21T00:23:06.072Z,27.31
2023-06-21T00:24:06.171Z,27.24
2023-06-21T00:25:06.249Z,27.35
2023-06-21T00:26:06.278Z,27.46
2023-06-21T00:27:06.330Z,27.40
2023-06-21T00:28:06.373Z,27.46
2023-06-21T00:29:06.456Z,27.31
2023-06-21T00:30:06.431Z,27.23
2023-06-21T00:31:06.500Z,27.24
2023-06-21T00:32:06.592Z,27.15
2023-06-21T00:33:06.642Z,27.10
2023-06-21T00:34:06.647Z,27.08
2023-06-21T00:35:06.680Z,26.86
2023-06-21T00:36:06.601Z,26.65
2023-06-21T00:37:06.689Z,26.86
2023-06-21T00:38:06.670Z,26.75
2023-06-21T00:39:06.741Z,26.87
2023-06-21T00:40:06.635Z,26.54
2023-06-21T00:41:06.612Z,26.58
2023-06-21T00:42:06.647Z,26.72
2023-06-21T00:43:06.729Z,26.78
2023-06-21T00:44:06.602Z,26.75
2023-06-21T00:45:06.649Z,26.80
2023-06-21T00:46:06.694Z,26.94
2023-06-21T00:47:06.761Z,26.85
2023-06-21T00:48:06.732Z,26.76
2023-06-21T00:49:06.718Z,26.76
2023-06-21T00:50:06.646Z,26.71
2023-06-21T00:51:06.659Z,26.83
2023-06-21T00:52:06.704Z,26.90
2023-06-21T00:53:06.659Z,26.90
2023-06-21T00:54:06.634Z,26.96
2023-06-21T00:55:06.638Z,27.07
2023-06-21T00:56:06.648Z,27.14
2023-06-21T00:57:06.687Z,27.08
2023-06-21T00:58:06.666Z,27.23
2023-06-21T00:59:06.763Z,27.11
2023-06-21T01:00:06.715Z,27.10
2023-06-21T01:01:06.897Z,27.10
2023-06-21T01:02:06.894Z,27.20
2023-06-21T01:03:06.954Z,27.18
2023-06-21T01:04:06.901Z,27.04
2023-06-21T01:05:06.988Z,27.06
2023-06-21T01:06:06.916Z,27.08
2023-06-21T01:07:06.927Z,26.99
2023-06-21T01:08:07.045Z,27.11
2023-06-21T01:09:07.051Z,27.07
2023-06-21T01:10:07.141Z,27.07
2023-06-21T01:11:07.197Z,27.15
2023-06-21T01:12:07.273Z,27.18
2023-06-21T01:13:07.276Z,27.21
2023-06-21T01:14:07.321Z,27.30
2023-06-21T01:15:07.307Z,27.38
2023-06-21T01:16:07.253Z,27.37
2023-06-21T01:17:07.370Z,27.34
2023-06-21T01:18:07.380Z,27.31
2023-06-21T01:19:07.405Z,27.33
2023-06-21T01:20:07.485Z,27.34
2023-06-21T01:21:07.567Z,27.38
2023-06-21T01:22:07.537Z,27.38
2023-06-21T01:23:07.614Z,27.42
2023-06-21T01:24:07.762Z,27.45
2023-06-21T01:25:07.698Z,27.49
2023-06-21T01:26:07.771Z,27.41
2023-06-21T01:27:07.897Z,27.48
2023-06-21T01:28:07.851Z,27.45
2023-06-21T01:29:07.806Z,27.51
2023-06-21T01:30:07.817Z,27.56
2023-06-21T01:31:07.899Z,27.58
2023-06-21T01:32:07.847Z,27.62
2023-06-21T01:33:07.833Z,27.61
2023-06-21T01:34:07.792Z,27.59
2023-06-21T01:35:10.137Z,27.59
2023-06-21T01:36:07.792Z,27.62
2023-06-21T01:37:07.830Z,27.62
2023-06-21T01:38:08.638Z,27.65
2023-06-21T01:39:07.760Z,27.66
2023-06-21T01:40:07.737Z,27.49
2023-06-21T01:41:07.710Z,27.41
2023-06-21T01:42:07.705Z,27.42
2023-06-21T01:43:07.785Z,27.48
2023-06-21T01:44:07.770Z,27.25
2023-06-21T01:45:07.680Z,27.38
2023-06-21T01:46:07.884Z,27.48
2023-06-21T01:47:07.720Z,27.40
2023-06-21T01:48:07.725Z,27.35
2023-06-21T01:49:07.692Z,27.42
2023-06-21T01:50:07.685Z,27.33
2023-06-21T01:51:07.741Z,27.34
2023-06-21T01:52:07.679Z,27.37
2023-06-21T01:53:07.654Z,27.40
2023-06-21T01:54:07.732Z,27.38
2023-06-21T01:55:07.692Z,27.42
2023-06-21T01:56:07.738Z,27.41
2023-06-21T01:57:07.650Z,27.41
2023-06-21T01:58:07.666Z,27.45
2023-06-21T01:59:07.664Z,27.48
2023-06-21T02:00:07.687Z,27.48
2023-06-21T02:01:07.713Z,27.52
2023-06-21T02:02:07.745Z,27.56
2023-06-21T02:03:07.783Z,27.55
2023-06-21T02:04:07.796Z,27.54
2023-06-21T02:05:07.885Z,27.37
2023-06-21T02:06:07.914Z,27.37
2023-06-21T02:07:07.964Z,27.33
2023-06-21T02:08:08.070Z,27.24
2023-06-21T02:09:08.082Z,27.15
2023-06-21T02:10:08.119Z,26.83
2023-06-21T02:11:08.164Z,26.71
2023-06-21T02:12:08.206Z,26.52
2023-06-21T02:13:08.181Z,26.37
2023-06-21T02:14:08.201Z,26.01
2023-06-21T02:15:08.155Z,25.94
2023-06-21T02:16:08.105Z,25.89
2023-06-21T02:17:08.646Z,25.87
2023-06-21T02:18:08.145Z,25.76
2023-06-21T02:19:08.125Z,25.59
2023-06-21T02:20:08.166Z,25.59
2023-06-21T02:21:08.162Z,25.69
2023-06-21T02:22:08.120Z,25.86
2023-06-21T02:23:08.156Z,25.96
2023-06-21T02:24:08.177Z,26.05
2023-06-21T02:25:08.098Z,25.97
2023-06-21T02:26:08.139Z,25.90
2023-06-21T02:27:08.177Z,25.72
2023-06-21T02:28:08.110Z,25.90
2023-06-21T02:29:08.108Z,25.82
2023-06-21T02:30:08.106Z,25.79
2023-06-21T02:31:08.099Z,25.83
2023-06-21T02:32:08.031Z,25.93
2023-06-21T02:33:08.046Z,25.82
2023-06-21T02:34:08.121Z,25.80
2023-06-21T02:35:08.043Z,25.70
2023-06-21T02:36:08.055Z,25.70
2023-06-21T02:37:08.014Z,25.80
2023-06-21T02:38:08.152Z,25.83
2023-06-21T02:39:08.028Z,25.87
2023-06-21T02:40:08.032Z,25.97
2023-06-21T02:41:08.077Z,26.03
2023-06-21T02:42:08.664Z,26.10
2023-06-21T02:43:08.016Z,26.11
2023-06-21T02:44:07.994Z,26.08
2023-06-21T02:45:08.001Z,26.16
2023-06-21T02:46:08.078Z,26.20
2023-06-21T02:47:07.998Z,26.18
2023-06-21T02:48:08.140Z,26.10
2023-06-21T02:49:08.026Z,26.07
2023-06-21T02:50:07.980Z,26.13
2023-06-21T02:51:07.994Z,26.11
2023-06-21T02:52:08.014Z,26.13
2023-06-21T02:53:08.063Z,26.08
2023-06-21T02:54:08.075Z,26.10
2023-06-21T02:55:08.130Z,26.10
2023-06-21T02:56:08.159Z,26.10
2023-06-21T02:57:08.130Z,26.16
2023-06-21T02:58:08.143Z,26.14
2023-06-21T02:59:08.168Z,26.21
2023-06-21T03:00:08.125Z,26.21
2023-06-21T03:01:08.210Z,26.25
2023-06-21T03:02:08.190Z,26.24
2023-06-21T03:03:08.283Z,26.24
2023-06-21T03:04:08.141Z,26.31
2023-06-21T03:05:08.186Z,26.31
2023-06-21T03:06:08.103Z,26.28
2023-06-21T03:07:08.057Z,26.34
2023-06-21T03:08:08.090Z,26.18
2023-06-21T03:09:08.008Z,26.25
2023-06-21T03:10:08.020Z,26.30
2023-06-21T03:11:08.061Z,26.34
2023-06-21T03:12:08.031Z,26.30
2023-06-21T03:13:08.067Z,26.32
2023-06-21T03:14:08.043Z,26.35
2023-06-21T03:15:08.021Z,26.38
2023-06-21T03:16:08.018Z,26.32
2023-06-21T03:17:08.022Z,26.34
2023-06-21T03:18:08.053Z,26.39
2023-06-21T03:19:08.112Z,26.41
2023-06-21T03:20:08.056Z,26.41
2023-06-21T03:21:07.996Z,26.44
2023-06-21T03:22:07.976Z,26.48
2023-06-21T03:23:07.957Z,26.48
2023-06-21T03:24:07.994Z,26.48
2023-06-21T03:25:07.912Z,26.54
2023-06-21T03:26:07.921Z,26.54
2023-06-21T03:27:07.920Z,26.55
2023-06-21T03:28:07.928Z,26.55
2023-06-21T03:29:08.047Z,26.55
2023-06-21T03:30:07.940Z,26.55
2023-06-21T03:31:07.913Z,26.55
2023-06-21T03:32:07.928Z,26.58
2023-06-21T03:33:08.009Z,26.55
2023-06-21T03:34:07.943Z,26.51
2023-06-21T03:35:07.901Z,26.51
2023-06-21T03:36:07.922Z,26.51
2023-06-21T03:37:07.980Z,26.46
2023-06-21T03:38:08.053Z,26.49
2023-06-21T03:39:08.033Z,26.51
2023-06-21T03:40:08.179Z,26.51
2023-06-21T03:41:08.134Z,26.51
2023-06-21T03:42:08.218Z,26.52
2023-06-21T03:43:08.208Z,26.52
2023-06-21T03:44:08.256Z,26.51
2023-06-21T03:45:08.289Z,26.51
2023-06-21T03:46:08.266Z,26.46
2023-06-21T03:47:08.163Z,26.44
2023-06-21T03:48:08.250Z,26.38
2023-06-21T03:49:08.208Z,26.31
2023-06-21T03:50:08.213Z,26.31
2023-06-21T03:51:08.136Z,26.31
2023-06-21T03:52:09.171Z,26.32
2023-06-21T03:53:08.181Z,26.34
2023-06-21T03:54:08.166Z,26.38
2023-06-21T03:55:08.144Z,26.35
2023-06-21T03:56:08.183Z,26.35
2023-06-21T03:57:08.147Z,26.31
2023-06-21T03:58:08.122Z,26.28
2023-06-21T03:59:08.117Z,26.25
2023-06-21T04:00:08.121Z,26.21
2023-06-21T04:01:08.147Z,26.21
2023-06-21T04:02:08.126Z,26.10
2023-06-21T04:03:08.245Z,26.01
2023-06-21T04:04:08.189Z,25.93
2023-06-21T04:05:08.104Z,26.01
2023-06-21T04:06:08.043Z,26.05
2023-06-21T04:07:08.076Z,26.10
2023-06-21T04:08:08.229Z,26.16
2023-06-21T04:09:09.039Z,26.21
2023-06-21T04:10:07.989Z,26.25
2023-06-21T04:11:08.026Z,26.28
2023-06-21T04:12:08.075Z,26.31
2023-06-21T04:13:08.053Z,26.30
2023-06-21T04:14:08.052Z,26.24
2023-06-21T04:15:08.092Z,26.30
2023-06-21T04:16:08.028Z,26.23
2023-06-21T04:17:08.009Z,26.27
2023-06-21T04:18:08.128Z,26.31
2023-06-21T04:19:08.048Z,26.35
2023-06-21T04:20:08.032Z,26.37
2023-06-21T04:21:07.990Z,26.34
2023-06-21T04:22:07.973Z,26.41
2023-06-21T04:23:08.042Z,26.38
2023-06-21T04:24:08.008Z,26.42
2023-06-21T04:25:07.979Z,26.42
2023-06-21T04:26:07.909Z,26.45
2023-06-21T04:27:07.949Z,26.46
2023-06-21T04:28:08.063Z,26.48
2023-06-21T04:29:07.978Z,26.49
2023-06-21T04:30:07.942Z,26.54
2023-06-21T04:31:07.929Z,26.56
2023-06-21T04:32:08.005Z,26.52
2023-06-21T04:33:08.081Z,26.56
2023-06-21T04:34:08.093Z,26.58
2023-06-21T04:35:08.139Z,26.59
2023-06-21T04:36:08.234Z,26.62
2023-06-21T04:37:08.226Z,26.63
2023-06-21T04:38:08.323Z,26.65
2023-06-21T04:39:08.390Z,26.68
2023-06-21T04:40:16.964Z,26.66
2023-06-21T04:41:09.354Z,26.68
2023-06-21T04:42:08.339Z,26.58
2023-06-21T04:43:08.377Z,26.63
2023-06-21T04:44:08.326Z,26.59
2023-06-21T04:45:08.307Z,26.66
2023-06-21T04:46:08.386Z,26.66
2023-06-21T04:47:08.279Z,26.71
2023-06-21T04:48:08.336Z,26.75
2023-06-21T04:49:08.367Z,26.73
2023-06-21T04:50:20.258Z,26.56
2023-06-21T04:51:09.271Z,26.62
2023-06-21T04:52:08.238Z,26.55
2023-06-21T04:53:08.316Z,26.60
2023-06-21T04:54:08.352Z,26.62
2023-06-21T04:55:08.224Z,26.72
2023-06-21T04:56:08.261Z,26.76
2023-06-21T04:57:08.193Z,26.73
2023-06-21T04:58:08.321Z,26.73
2023-06-21T04:59:08.221Z,26.60
2023-06-21T05:01:37.891Z,26.63
2023-06-21T05:02:27.778Z,26.60
2023-06-21T05:03:27.846Z,26.68
2023-06-21T05:04:27.750Z,26.75
2023-06-21T05:05:27.699Z,26.86
2023-06-21T05:06:27.704Z,26.89
2023-06-21T05:07:27.705Z,26.90
2023-06-21T05:08:27.706Z,26.96
2023-06-21T05:09:27.713Z,26.96
2023-06-21T05:10:27.957Z,26.93
2023-06-21T05:11:27.693Z,26.87
2023-06-21T05:12:27.647Z,26.78
2023-06-21T05:13:27.711Z,26.78
2023-06-21T05:14:27.660Z,26.68
2023-06-21T05:15:27.665Z,26.56
2023-06-21T05:16:27.779Z,26.68
2023-06-21T05:17:27.663Z,26.52
2023-06-21T05:18:27.750Z,26.49
2023-06-21T05:19:27.677Z,26.23
2023-06-21T05:20:27.888Z,26.17
2023-06-21T05:21:27.673Z,26.24
2023-06-21T05:22:27.646Z,26.34
2023-06-21T05:23:28.007Z,26.45
2023-06-21T05:24:28.923Z,26.45
2023-06-21T05:25:27.891Z,26.41
2023-06-21T05:26:27.709Z,26.56
2023-06-21T05:27:27.605Z,26.69
2023-06-21T05:28:27.630Z,26.76
2023-06-21T05:29:27.554Z,26.73
2023-06-21T05:30:27.760Z,26.82
2023-06-21T05:31:27.740Z,26.91
2023-06-21T05:32:27.677Z,26.97
2023-06-21T05:33:28.070Z,27.04
2023-06-21T05:34:27.614Z,26.93
2023-06-21T05:35:27.661Z,26.76
2023-06-21T05:36:27.698Z,26.80
2023-06-21T05:37:27.847Z,26.91
2023-06-21T05:38:27.602Z,26.97
2023-06-21T05:39:28.422Z,26.90
2023-06-21T05:40:27.915Z,26.97
2023-06-21T05:41:28.430Z,26.93
2023-06-21T05:42:27.572Z,27.08
2023-06-21T05:43:28.117Z,26.94
2023-06-21T05:44:27.502Z,27.08
2023-06-21T05:46:57.721Z,27.14
2023-06-21T05:47:46.986Z,27.11
2023-06-21T05:48:46.985Z,27.07
2023-06-21T05:49:47.020Z,27.18
2023-06-21T05:50:47.952Z,27.01
2023-06-21T05:51:47.340Z,26.76
2023-06-21T05:52:48.073Z,26.60
2023-06-21T05:53:47.278Z,26.76
2023-06-21T05:54:46.886Z,26.46
2023-06-21T05:55:47.085Z,26.65
2023-06-21T05:56:46.929Z,26.85
2023-06-21T05:57:46.927Z,26.99
2023-06-21T05:58:47.893Z,26.87
2023-06-21T05:59:46.969Z,26.93
2023-06-21T06:00:46.889Z,26.97
2023-06-21T06:01:46.866Z,27.13
2023-06-21T06:02:47.061Z,26.99
2023-06-21T06:03:47.554Z,26.97
2023-06-21T06:04:46.825Z,27.01
2023-06-21T06:05:46.931Z,26.96
2023-06-21T06:06:46.931Z,26.60
2023-06-21T06:07:47.037Z,26.90
2023-06-21T06:08:46.749Z,26.94
2023-06-21T06:09:46.883Z,27.11
2023-06-21T06:10:46.770Z,27.24
2023-06-21T06:11:46.894Z,27.38
2023-06-21T06:12:46.995Z,27.55
2023-06-21T06:13:46.978Z,27.55
2023-06-21T06:14:47.703Z,27.69
2023-06-21T06:15:47.418Z,27.76
2023-06-21T06:16:46.896Z,27.86
2023-06-21T06:17:46.835Z,27.96
2023-06-21T06:18:46.926Z,28.00
2023-06-21T06:19:47.250Z,28.08
2023-06-21T06:20:48.682Z,28.16
2023-06-21T06:21:47.080Z,28.30
2023-06-21T06:22:47.145Z,28.34
2023-06-21T06:23:46.937Z,28.35
2023-06-21T06:24:46.977Z,28.40
2023-06-21T06:25:47.197Z,28.33
2023-06-21T06:26:47.787Z,28.41
2023-06-21T06:27:47.059Z,28.51
2023-06-21T06:28:47.101Z,28.55
2023-06-21T06:29:47.543Z,28.34
2023-06-21T06:30:47.966Z,28.44
2023-06-21T06:31:47.345Z,28.38
2023-06-21T06:32:47.088Z,28.56
2023-06-21T06:33:48.040Z,28.55
2023-06-21T06:34:47.244Z,28.55
2023-06-21T06:35:47.352Z,28.58
2023-06-21T06:36:56.191Z,28.75
2023-06-21T06:43:13.310Z,29.13
2023-06-21T06:44:04.393Z,29.14
2023-06-21T06:45:04.470Z,29.31
2023-06-21T06:46:04.513Z,29.27
2023-06-21T06:47:04.281Z,29.43
2023-06-21T06:48:04.387Z,29.43
2023-06-21T06:49:04.315Z,29.48
2023-06-21T06:50:04.246Z,29.52
2023-06-21T06:51:04.574Z,29.52
2023-06-21T06:52:04.287Z,29.58
2023-06-21T06:53:04.898Z,29.72
2023-06-21T06:54:04.517Z,29.82
2023-06-21T06:55:04.454Z,29.89
2023-06-21T06:56:04.601Z,29.80
2023-06-21T06:57:04.494Z,29.76
2023-06-21T06:58:06.569Z,29.51
2023-06-21T06:59:04.514Z,29.76
2023-06-21T07:00:04.619Z,29.86
2023-06-21T07:01:05.027Z,29.89
2023-06-21T07:02:05.530Z,30.02
2023-06-21T07:03:04.729Z,29.90
2023-06-21T07:04:04.852Z,29.90
2023-06-21T07:05:04.787Z,30.07
2023-06-21T07:06:04.852Z,29.97
2023-06-21T07:07:06.293Z,29.95
2023-06-21T07:08:04.882Z,30.09
2023-06-21T07:09:04.781Z,30.22
2023-06-21T07:10:04.795Z,30.17
2023-06-21T07:11:05.009Z,30.31
2023-06-21T07:12:04.832Z,30.17
2023-06-21T07:13:04.828Z,29.99
2023-06-21T07:14:04.802Z,30.06
2023-06-21T07:15:05.329Z,29.89
2023-06-21T07:16:05.144Z,30.06
2023-06-21T07:17:04.937Z,30.13
2023-06-21T07:18:04.986Z,30.27
2023-06-21T07:19:04.754Z,30.34
2023-06-21T07:20:04.859Z,30.33
2023-06-21T07:21:04.990Z,30.41
2023-06-21T07:22:04.810Z,30.28
2023-06-21T07:23:05.311Z,30.37
2023-06-21T07:24:04.756Z,30.37
2023-06-21T07:25:04.786Z,30.41
2023-06-21T07:26:04.995Z,30.47
2023-06-21T07:27:04.717Z,30.47
2023-06-21T07:28:05.532Z,30.57
2023-06-21T07:29:04.742Z,30.65
2023-06-21T07:30:05.366Z,30.68
2023-06-21T07:31:04.773Z,30.52
2023-06-21T07:32:05.022Z,30.58
2023-06-21T07:33:05.622Z,30.75
2023-06-21T07:34:07.948Z,30.86
2023-06-21T07:35:05.823Z,31.00
2023-06-21T07:36:04.744Z,31.12
2023-06-21T07:37:04.971Z,31.24
2023-06-21T07:38:04.713Z,31.17
2023-06-21T07:39:05.888Z,31.24
2023-06-21T07:40:04.800Z,31.34
2023-06-21T07:41:04.720Z,31.44
2023-06-21T07:42:13.750Z,31.43
2023-06-21T07:43:04.627Z,31.41
2023-06-21T07:44:04.751Z,31.44
2023-06-21T07:45:05.507Z,31.27
2023-06-21T07:46:14.946Z,31.00
2023-06-21T07:47:04.663Z,31.16
2023-06-21T07:48:04.698Z,31.29
2023-06-21T07:49:04.848Z,30.86
2023-06-21T07:50:17.091Z,30.99
2023-06-21T07:51:05.772Z,30.99
2023-06-21T07:52:04.664Z,31.10
2023-06-21T07:53:04.607Z,31.17
2023-06-21T07:54:04.880Z,30.82
2023-06-21T07:55:04.561Z,30.78
2023-06-21T07:56:04.564Z,30.96
2023-06-21T07:57:04.651Z,31.02
2023-06-21T07:58:04.527Z,31.13
2023-06-21T07:59:04.595Z,31.24
2023-06-21T08:00:04.542Z,31.36
2023-06-21T08:01:04.572Z,31.45
2023-06-21T08:02:04.589Z,31.54
2023-06-21T08:03:04.677Z,31.54
2023-06-21T08:04:04.768Z,31.51
2023-06-21T08:05:04.717Z,31.69
2023-06-21T08:06:04.736Z,31.81
2023-06-21T08:07:05.458Z,31.86
2023-06-21T08:08:04.861Z,31.89
2023-06-21T08:09:04.872Z,31.78
2023-06-21T08:10:04.871Z,31.88
2023-06-21T08:11:04.880Z,32.00
2023-06-21T08:12:04.985Z,32.08
2023-06-21T08:13:05.023Z,32.09
2023-06-21T08:14:05.974Z,32.09
2023-06-21T08:15:05.014Z,32.12
2023-06-21T08:16:05.015Z,32.26
2023-06-21T08:17:05.064Z,32.12
2023-06-21T08:18:05.080Z,32.13
2023-06-21T08:19:05.096Z,32.22
2023-06-21T08:20:05.148Z,32.27
2023-06-21T08:21:05.155Z,32.40
2023-06-21T08:22:05.157Z,32.34
2023-06-21T08:23:05.135Z,32.44
2023-06-21T08:24:05.265Z,32.54
2023-06-21T08:25:05.303Z,32.56
2023-06-21T08:26:05.400Z,32.67
2023-06-21T08:27:05.454Z,32.77
2023-06-21T08:28:05.553Z,32.91
2023-06-21T08:29:05.620Z,32.92
2023-06-21T08:30:05.636Z,33.05
2023-06-21T08:31:05.686Z,32.92
2023-06-21T08:32:06.199Z,32.98
2023-06-21T08:33:05.830Z,33.11
2023-06-21T08:34:05.802Z,33.06
2023-06-21T08:35:05.824Z,32.99
2023-06-21T08:36:05.819Z,33.09
2023-06-21T08:37:06.149Z,33.16
2023-06-21T08:38:18.378Z,33.19
2023-06-21T08:39:05.981Z,32.97
2023-06-21T08:40:06.002Z,32.92
2023-06-21T08:41:05.916Z,33.04
2023-06-21T08:42:06.000Z,33.12
2023-06-21T08:43:05.946Z,33.19
2023-06-21T08:44:05.968Z,33.28
2023-06-21T08:45:05.886Z,33.22
2023-06-21T08:46:08.227Z,33.33
2023-06-21T08:47:06.062Z,33.43
2023-06-21T08:48:05.934Z,33.50
2023-06-21T08:49:05.890Z,33.57
2023-06-21T08:50:05.899Z,33.18
2023-06-21T08:51:05.979Z,33.06
2023-06-21T08:52:06.019Z,33.19
2023-06-21T08:53:05.884Z,33.34
2023-06-21T08:54:05.931Z,33.36
2023-06-21T08:55:05.869Z,33.40
2023-06-21T08:56:05.879Z,33.42
2023-06-21T08:57:06.055Z,33.53
2023-06-21T08:58:07.163Z,33.59
2023-06-21T08:59:06.525Z,33.70
2023-06-21T09:00:05.774Z,33.77
2023-06-21T09:01:05.861Z,33.77
2023-06-21T09:02:06.049Z,33.75
2023-06-21T09:03:06.052Z,33.83
2023-06-21T09:04:06.096Z,33.97
2023-06-21T09:05:05.856Z,33.98
2023-06-21T09:06:05.782Z,34.05
2023-06-21T09:07:05.813Z,33.78
2023-06-21T09:08:07.437Z,33.71
2023-06-21T09:09:06.115Z,33.71
2023-06-21T09:10:05.787Z,33.80
2023-06-21T09:11:05.727Z,33.90
2023-06-21T09:12:05.772Z,33.92
2023-06-21T09:13:05.708Z,34.10
2023-06-21T09:14:07.242Z,34.11
2023-06-21T09:15:05.747Z,34.21
2023-06-21T09:16:05.729Z,34.29
2023-06-21T09:17:05.722Z,34.16
2023-06-21T09:18:06.093Z,34.21
2023-06-21T09:19:05.741Z,34.16
2023-06-21T09:20:05.686Z,34.19
2023-06-21T09:21:05.669Z,34.30
2023-06-21T09:22:05.711Z,34.34
2023-06-21T09:23:05.686Z,34.02
2023-06-21T09:24:05.673Z,33.70
2023-06-21T09:25:05.661Z,34.00
2023-06-21T09:26:05.646Z,34.10
2023-06-21T09:27:05.676Z,34.25
2023-06-21T09:28:06.025Z,34.25
2023-06-21T09:29:05.602Z,34.29
2023-06-21T09:30:29.583Z,34.22
2023-06-21T09:31:06.665Z,34.29
2023-06-21T09:32:05.640Z,34.22
2023-06-21T09:33:05.763Z,34.22
2023-06-21T09:34:05.683Z,34.35
2023-06-21T09:35:05.670Z,34.43
2023-06-21T09:36:05.747Z,34.57
2023-06-21T09:37:05.618Z,34.45
2023-06-21T09:38:06.106Z,34.39
2023-06-21T09:39:05.584Z,34.45
2023-06-21T09:40:05.610Z,34.35
2023-06-21T09:41:05.741Z,34.40
2023-06-21T09:42:05.592Z,34.30
2023-06-21T09:43:06.047Z,34.30
2023-06-21T09:44:05.612Z,34.38
2023-06-21T09:45:05.704Z,34.47
2023-06-21T09:46:05.744Z,34.60
2023-06-21T09:47:05.738Z,34.60
2023-06-21T09:48:06.107Z,34.74
2023-06-21T09:49:05.787Z,34.80
2023-06-21T09:50:05.817Z,34.83
2023-06-21T09:51:05.901Z,34.93
2023-06-21T09:52:05.902Z,34.53
2023-06-21T09:53:05.938Z,34.55
2023-06-21T09:54:06.001Z,34.67
2023-06-21T09:55:06.013Z,34.63
2023-06-21T09:56:05.999Z,34.75
2023-06-21T09:57:06.005Z,34.83
2023-06-21T09:58:06.033Z,34.73
2023-06-21T09:59:06.142Z,34.66
2023-06-21T10:00:06.136Z,34.67
2023-06-21T10:01:06.140Z,34.55
2023-06-21T10:02:06.157Z,34.50
2023-06-21T10:03:06.658Z,34.59
2023-06-21T10:04:07.196Z,34.77
2023-06-21T10:05:06.186Z,34.81
2023-06-21T10:06:06.240Z,34.81
2023-06-21T10:07:06.202Z,34.84
2023-06-21T10:08:06.589Z,34.79
2023-06-21T10:09:06.353Z,34.87
2023-06-21T10:10:06.323Z,34.66
2023-06-21T10:11:06.392Z,34.69
2023-06-21T10:12:06.373Z,34.74
2023-06-21T10:13:06.551Z,34.93
2023-06-21T10:14:06.443Z,34.94
2023-06-21T10:15:06.476Z,35.02
2023-06-21T10:16:06.459Z,35.08
2023-06-21T10:17:06.532Z,35.27
2023-06-21T10:18:07.127Z,35.28
2023-06-21T10:19:06.584Z,35.28
2023-06-21T10:20:06.694Z,35.28
2023-06-21T10:21:06.825Z,35.34
2023-06-21T10:22:06.783Z,35.51
2023-06-21T10:23:06.933Z,35.39
2023-06-21T10:24:06.856Z,35.60
2023-06-21T10:25:06.977Z,35.69
2023-06-21T10:26:07.030Z,35.67
2023-06-21T10:27:07.059Z,35.39
2023-06-21T10:28:07.640Z,35.52
2023-06-21T10:29:07.151Z,35.60
2023-06-21T10:30:07.196Z,35.76
2023-06-21T10:31:07.244Z,35.60
2023-06-21T10:32:07.298Z,35.62
2023-06-21T10:33:07.663Z,35.51
2023-06-21T10:34:07.390Z,35.48
2023-06-21T10:35:07.370Z,35.49
2023-06-21T10:36:07.407Z,35.44
2023-06-21T10:37:07.626Z,35.41
2023-06-21T10:38:07.474Z,35.36
2023-06-21T10:39:07.611Z,35.44
2023-06-21T10:40:11.672Z,35.42
2023-06-21T10:41:07.639Z,35.56
2023-06-21T10:42:07.413Z,35.45
2023-06-21T10:43:07.366Z,35.49
2023-06-21T10:44:07.606Z,35.66
2023-06-21T10:45:07.377Z,35.72
2023-06-21T10:46:07.449Z,35.75
2023-06-21T10:47:07.371Z,35.87
2023-06-21T10:48:07.387Z,35.93
2023-06-21T10:49:07.618Z,35.83
2023-06-21T10:50:07.327Z,36.03
2023-06-21T10:51:07.331Z,36.16
2023-06-21T10:52:07.432Z,36.28
2023-06-21T10:53:07.427Z,36.21
2023-06-21T10:54:07.555Z,36.25
2023-06-21T10:55:07.459Z,36.24
2023-06-21T10:56:07.407Z,36.36
2023-06-21T10:57:07.460Z,36.42
2023-06-21T10:58:07.667Z,36.48
2023-06-21T10:59:07.533Z,36.65
2023-06-21T11:00:07.578Z,36.65
2023-06-21T11:01:07.614Z,36.61
2023-06-21T11:02:07.631Z,36.48
2023-06-21T11:03:07.735Z,36.59
2023-06-21T11:04:08.118Z,36.39
2023-06-21T11:05:07.821Z,36.07
2023-06-21T11:06:07.777Z,35.76
2023-06-21T11:07:07.829Z,35.83
2023-06-21T11:08:07.825Z,36.03
2023-06-21T11:09:08.099Z,36.12
2023-06-21T11:10:07.800Z,36.11
2023-06-21T11:11:07.775Z,36.31
2023-06-21T11:12:07.999Z,36.49
2023-06-21T11:13:08.923Z,36.55
2023-06-21T11:14:07.791Z,36.42
2023-06-21T11:15:07.794Z,36.58
2023-06-21T11:16:07.824Z,36.78
2023-06-21T11:17:07.759Z,36.79
2023-06-21T11:18:07.797Z,36.90
2023-06-21T11:19:07.762Z,36.97
2023-06-21T11:20:07.738Z,37.12
2023-06-21T11:21:07.760Z,37.00
2023-06-21T11:22:09.004Z,37.12
2023-06-21T11:23:08.804Z,36.80
2023-06-21T11:24:07.880Z,36.86
2023-06-21T11:25:07.818Z,36.99
2023-06-21T11:26:07.675Z,37.09
2023-06-21T11:27:07.696Z,37.20
2023-06-21T11:28:07.690Z,37.04
2023-06-21T11:29:08.134Z,36.87
2023-06-21T11:30:07.744Z,36.90
2023-06-21T11:31:07.944Z,36.99
2023-06-21T11:32:08.448Z,36.87
2023-06-21T11:33:07.744Z,36.59
2023-06-21T11:34:08.080Z,36.46
2023-06-21T11:35:07.733Z,36.69
2023-06-21T11:36:08.574Z,36.92
2023-06-21T11:37:07.727Z,36.68
2023-06-21T11:38:07.706Z,36.92
2023-06-21T11:39:07.714Z,36.89
2023-06-21T11:40:07.698Z,36.45
2023-06-21T11:41:07.673Z,36.31
2023-06-21T11:42:07.669Z,36.32
2023-06-21T11:43:07.686Z,36.28
2023-06-21T11:44:07.733Z,36.08
2023-06-21T11:45:07.737Z,36.20
2023-06-21T11:46:07.761Z,36.10
2023-06-21T11:47:07.734Z,36.25
2023-06-21T11:48:07.887Z,36.32
2023-06-21T11:49:08.577Z,36.25
2023-06-21T11:50:07.780Z,36.61
2023-06-21T11:51:07.852Z,36.73
2023-06-21T11:52:07.848Z,36.96
2023-06-21T11:53:07.860Z,36.87
2023-06-21T11:54:07.891Z,36.99
2023-06-21T11:55:07.854Z,37.21
2023-06-21T11:56:07.896Z,37.33
2023-06-21T11:57:07.889Z,37.38
2023-06-21T11:58:07.865Z,37.45
2023-06-21T11:59:07.852Z,37.07
2023-06-21T12:00:07.883Z,37.00
2023-06-21T12:01:07.824Z,36.85
2023-06-21T12:02:07.829Z,36.86
2023-06-21T12:03:08.030Z,36.99
2023-06-21T12:04:07.893Z,37.16
2023-06-21T12:05:08.091Z,37.16
2023-06-21T12:06:07.809Z,37.35
2023-06-21T12:07:07.782Z,37.41
2023-06-21T12:08:07.814Z,37.52
2023-06-21T12:09:07.849Z,37.59
2023-06-21T12:10:07.845Z,37.55
2023-06-21T12:11:07.859Z,37.35
2023-06-21T12:12:07.951Z,37.42
2023-06-21T12:13:07.934Z,37.69
2023-06-21T12:14:07.929Z,37.83
2023-06-21T12:15:07.958Z,37.55
2023-06-21T12:16:08.103Z,37.55
2023-06-21T12:17:07.938Z,37.21
2023-06-21T12:18:08.014Z,37.12
2023-06-21T12:19:07.954Z,37.10
2023-06-21T12:20:08.037Z,37.13
2023-06-21T12:21:08.117Z,37.42
2023-06-21T12:22:08.048Z,37.47
2023-06-21T12:23:08.155Z,37.16
2023-06-21T12:24:08.211Z,37.24
2023-06-21T12:25:08.264Z,37.23
2023-06-21T12:26:08.312Z,37.31
2023-06-21T12:27:08.321Z,37.20
2023-06-21T12:28:08.382Z,37.14
2023-06-21T12:29:08.487Z,37.03
2023-06-21T12:30:08.522Z,36.87
2023-06-21T12:31:08.665Z,36.86
2023-06-21T12:32:08.617Z,36.85
2023-06-21T12:33:08.687Z,36.85
2023-06-21T12:34:08.704Z,36.34
2023-06-21T12:35:08.693Z,36.48
2023-06-21T12:36:08.758Z,36.34
2023-06-21T12:37:08.725Z,36.27
2023-06-21T12:38:08.723Z,36.63
2023-06-21T12:39:08.762Z,36.66
2023-06-21T12:40:08.844Z,36.56
2023-06-21T12:41:08.843Z,36.66
2023-06-21T12:42:08.851Z,36.58
2023-06-21T12:43:08.908Z,36.53
2023-06-21T12:44:08.966Z,36.44
2023-06-21T12:45:08.973Z,36.28
2023-06-21T12:46:08.988Z,36.14
2023-06-21T12:47:08.976Z,36.21
2023-06-21T12:48:09.058Z,36.35
2023-06-21T12:49:09.054Z,36.35
2023-06-21T12:50:09.128Z,36.35
2023-06-21T12:51:11.196Z,36.38
2023-06-21T12:52:09.135Z,36.27
2023-06-21T12:53:09.175Z,36.34
2023-06-21T12:54:09.239Z,35.97
2023-06-21T12:55:09.317Z,36.23
2023-06-21T12:56:09.310Z,36.32
2023-06-21T12:57:09.366Z,36.45
2023-06-21T12:58:09.443Z,36.59
2023-06-21T12:59:09.465Z,36.68
2023-06-21T13:00:09.538Z,36.75